Terminal Aerodrome Forecast
Issued by NWS Bismarck, ND

Home | Current Version | Previous Version | Text Only | Print | Product List | Glossary On
Versions: 1 2 3 4 5 6 7 8 9 10 11 12 13 14 15 16 17
000
FTUS43 KBIS 071500 AAA
TAFISN
TAF AMD
KISN 071559Z 0716/0812 27015KT 6SM -RA BR BKN030 OVC060
     FM071700 32021G31KT P6SM VCSH SCT035 BKN060
     FM080100 33009KT P6SM SCT060 SCT100=

USA.gov is the U.S. government's official web portal to all federal, state and local government web resources and services.